createdAt,value
2019-01-30T00:03:37.367Z,-2.50
2019-01-30T00:09:39.705Z,-2.60
2019-01-30T00:15:41.826Z,-2.70
2019-01-30T00:21:44.141Z,-2.60
2019-01-30T00:27:46.456Z,-2.60
2019-01-30T00:33:48.771Z,-2.80
2019-01-30T00:39:51.240Z,-2.90
2019-01-30T00:45:53.411Z,-3.00
2019-01-30T00:51:55.797Z,-3.00
2019-01-30T00:57:59.229Z,-3.10
2019-01-30T01:04:02.999Z,-3.20
2019-01-30T01:10:07.307Z,-3.30
2019-01-30T01:16:09.563Z,-3.30
2019-01-30T01:22:11.960Z,-3.30
2019-01-30T01:28:15.310Z,-3.30
2019-01-30T01:34:17.687Z,-3.30
2019-01-30T01:40:19.891Z,-3.40
2019-01-30T01:46:22.306Z,-3.50
2019-01-30T01:52:24.845Z,-3.60
2019-01-30T01:58:27.128Z,-3.50
2019-01-30T02:04:29.831Z,-3.50
2019-01-30T02:10:32.232Z,-3.70
2019-01-30T02:16:35.748Z,-3.70
2019-01-30T02:22:38.228Z,-3.80
2019-01-30T02:28:40.666Z,-3.90
2019-01-30T02:34:43.152Z,-3.90
2019-01-30T02:40:46.511Z,-3.90
2019-01-30T02:46:49.570Z,-4.00
2019-01-30T02:52:52.826Z,-4.00
2019-01-30T02:58:56.332Z,-4.00
2019-01-30T03:04:58.811Z,-4.10
2019-01-30T03:11:01.231Z,-4.10
2019-01-30T03:17:03.589Z,-4.20
2019-01-30T03:23:05.907Z,-4.20
2019-01-30T03:29:09.252Z,-4.30
2019-01-30T03:35:11.527Z,-4.30
2019-01-30T03:41:13.699Z,-4.30
2019-01-30T03:47:15.979Z,-4.30
2019-01-30T03:53:18.294Z,-4.40
2019-01-30T03:59:20.551Z,-4.40
2019-01-30T04:05:23.767Z,-4.40
2019-01-30T04:11:26.368Z,-4.40
2019-01-30T04:17:28.579Z,-4.40
2019-01-30T04:23:30.956Z,-4.40
2019-01-30T04:29:33.321Z,-4.50
2019-01-30T04:35:35.435Z,-4.50
2019-01-30T04:41:37.903Z,-4.50
2019-01-30T04:47:40.892Z,-4.50
2019-01-30T04:53:43.243Z,-4.60
2019-01-30T04:59:45.414Z,-4.60
2019-01-30T05:05:47.690Z,-4.60
2019-01-30T05:11:50.923Z,-4.70
2019-01-30T05:17:54.179Z,-4.70
2019-01-30T05:23:57.706Z,-4.70
2019-01-30T05:29:59.849Z,-4.70
2019-01-30T05:36:01.995Z,-4.80
2019-01-30T05:42:04.373Z,-4.80
2019-01-30T05:48:13.690Z,-4.80
2019-01-30T05:54:16.119Z,-4.90
2019-01-30T06:00:31.677Z,-4.90
2019-01-30T06:06:33.912Z,-4.90
2019-01-30T06:12:36.279Z,-5.00
2019-01-30T06:18:41.957Z,-5.00
2019-01-30T06:24:45.031Z,-5.00
2019-01-30T06:30:47.276Z,-5.00
2019-01-30T06:36:49.549Z,-5.00
2019-01-30T06:42:52.850Z,-5.10
2019-01-30T06:48:56.336Z,-5.10
2019-01-30T06:54:58.795Z,-5.10
2019-01-30T07:01:01.099Z,-5.10
2019-01-30T07:07:04.390Z,-5.10
2019-01-30T07:13:06.704Z,-5.00
2019-01-30T07:19:08.935Z,-5.00
2019-01-30T07:25:12.385Z,-4.90
2019-01-30T07:31:14.932Z,-4.80
2019-01-30T07:37:17.097Z,-4.80
2019-01-30T07:43:19.567Z,-4.70
2019-01-30T07:49:22.063Z,-4.70
2019-01-30T07:55:24.489Z,-4.50
2019-01-30T08:01:28.096Z,-4.40
2019-01-30T08:07:30.628Z,-4.30
2019-01-30T08:13:33.189Z,-4.00
2019-01-30T08:19:35.344Z,-3.90
2019-01-30T08:25:38.523Z,-3.80
2019-01-30T08:31:43.023Z,-3.70
2019-01-30T08:37:45.981Z,-3.70
2019-01-30T08:43:48.393Z,-3.50
2019-01-30T08:49:51.535Z,-3.30
2019-01-30T08:55:54.143Z,-3.10
2019-01-30T09:01:56.588Z,-3.00
2019-01-30T09:07:58.795Z,-2.80
2019-01-30T09:14:01.145Z,-2.70
2019-01-30T09:20:06.015Z,-2.50
2019-01-30T09:26:08.547Z,-2.30
2019-01-30T09:32:11.005Z,-2.00
2019-01-30T09:38:14.358Z,-1.80
2019-01-30T09:44:16.657Z,-1.60
2019-01-30T09:50:19.105Z,-1.40
2019-01-30T09:56:21.738Z,-1.30
2019-01-30T10:02:25.779Z,-1.10
2019-01-30T10:08:28.047Z,-0.80
2019-01-30T10:14:30.695Z,-0.70
2019-01-30T10:20:33.238Z,-0.50
2019-01-30T10:26:35.703Z,-0.20
2019-01-30T10:32:38.541Z,-0.10
2019-01-30T10:38:40.831Z,0.00
2019-01-30T10:44:43.340Z,0.20
2019-01-30T10:50:45.740Z,0.50
2019-01-30T10:56:49.979Z,0.60
2019-01-30T11:02:52.171Z,0.70
2019-01-30T11:08:54.503Z,0.90
2019-01-30T11:14:58.044Z,1.20
2019-01-30T11:21:00.506Z,1.60
2019-01-30T11:27:02.777Z,1.60
2019-01-30T11:33:04.959Z,1.80
2019-01-30T11:39:07.230Z,2.20
2019-01-30T11:51:18.444Z,2.40
2019-01-30T11:57:20.963Z,2.90
2019-01-30T12:03:23.340Z,3.10
2019-01-30T12:09:26.057Z,3.30
2019-01-30T12:15:28.500Z,3.50
2019-01-30T12:21:30.879Z,3.50
2019-01-30T12:27:33.699Z,4.10
2019-01-30T12:33:37.546Z,4.70
2019-01-30T12:39:39.739Z,5.20
2019-01-30T12:45:44.619Z,5.50
2019-01-30T12:51:48.710Z,5.80
2019-01-30T12:57:51.312Z,5.70
2019-01-30T13:03:53.642Z,5.60
2019-01-30T13:09:56.208Z,5.80
2019-01-30T13:15:58.702Z,5.60
2019-01-30T13:22:02.651Z,6.20
2019-01-30T13:28:05.463Z,6.40
2019-01-30T13:34:07.705Z,6.90
2019-01-30T13:40:13.565Z,6.60
2019-01-30T13:46:18.008Z,6.30
2019-01-30T13:52:20.573Z,6.10
2019-01-30T13:58:23.089Z,6.20
2019-01-30T14:04:25.916Z,6.50
2019-01-30T14:10:28.468Z,6.40
2019-01-30T14:16:30.944Z,6.50
2019-01-30T14:22:33.230Z,6.60
2019-01-30T14:28:35.600Z,6.60
2019-01-30T14:34:38.241Z,6.70
2019-01-30T14:40:40.678Z,6.50
2019-01-30T14:46:43.206Z,6.60
2019-01-30T14:52:46.903Z,6.50
2019-01-30T14:58:49.743Z,6.40
2019-01-30T15:04:52.243Z,6.20
2019-01-30T15:10:54.669Z,6.10
2019-01-30T15:16:56.958Z,6.00
2019-01-30T15:22:59.948Z,5.70
2019-01-30T15:29:02.203Z,5.50
2019-01-30T15:35:05.703Z,5.30
2019-01-30T15:41:08.109Z,5.00
2019-01-30T15:47:12.407Z,4.70
2019-01-30T15:53:18.284Z,4.50
2019-01-30T15:59:20.876Z,4.30
2019-01-30T16:05:23.474Z,4.10
2019-01-30T16:11:25.854Z,3.80
2019-01-30T16:17:28.216Z,3.70
2019-01-30T16:23:31.580Z,3.60
2019-01-30T16:29:34.964Z,3.40
2019-01-30T16:35:37.187Z,3.30
2019-01-30T16:41:39.544Z,3.10
2019-01-30T16:47:43.977Z,2.90
2019-01-30T16:53:46.225Z,2.80
2019-01-30T16:59:48.457Z,2.70
2019-01-30T17:05:51.888Z,2.70
2019-01-30T17:11:55.188Z,2.60
2019-01-30T17:17:57.469Z,2.50
2019-01-30T17:24:00.967Z,2.50
2019-01-30T17:30:08.152Z,2.40
2019-01-30T17:36:18.118Z,2.30
2019-01-30T17:42:15.000Z,2.20
2019-01-30T17:48:20.094Z,2.20
2019-01-30T17:54:22.205Z,2.00
2019-01-30T18:00:31.611Z,2.00
2019-01-30T18:06:44.810Z,1.90
2019-01-30T18:12:47.028Z,1.90
2019-01-30T18:18:49.228Z,1.80
2019-01-30T18:24:51.370Z,1.70
2019-01-30T18:30:53.472Z,1.80
2019-01-30T18:36:55.663Z,1.70
2019-01-30T18:42:57.817Z,1.70
2019-01-30T18:49:01.715Z,1.60
2019-01-30T18:55:04.485Z,1.60
2019-01-30T19:01:06.868Z,1.60
2019-01-30T19:07:09.156Z,1.60
2019-01-30T19:13:11.391Z,1.60
2019-01-30T19:19:13.590Z,1.50
2019-01-30T19:25:17.556Z,1.50
2019-01-30T19:31:21.848Z,1.40
2019-01-30T19:37:25.207Z,1.30
2019-01-30T19:43:27.327Z,1.30
2019-01-30T19:49:30.676Z,1.30
2019-01-30T19:55:32.830Z,1.20
2019-01-30T20:01:36.168Z,1.30
2019-01-30T20:07:38.935Z,1.20
2019-01-30T20:13:41.548Z,1.20
2019-01-30T20:19:45.339Z,1.20
2019-01-30T20:25:47.807Z,1.00
2019-01-30T20:31:50.091Z,1.00
2019-01-30T20:37:52.384Z,1.10
2019-01-30T20:43:54.752Z,1.00
2019-01-30T20:49:58.080Z,1.00
2019-01-30T20:56:00.715Z,1.00
2019-01-30T21:02:02.915Z,1.00
2019-01-30T21:08:05.949Z,1.00
2019-01-30T21:14:08.225Z,1.00
2019-01-30T21:20:11.313Z,1.00
2019-01-30T21:26:13.472Z,1.00
2019-01-30T21:32:15.655Z,1.00
2019-01-30T21:38:20.169Z,0.90
2019-01-30T21:44:22.383Z,0.90
2019-01-30T21:50:24.761Z,0.90
2019-01-30T21:56:27.903Z,0.90
2019-01-30T22:02:30.399Z,0.90
2019-01-30T22:08:35.770Z,0.90
2019-01-30T22:14:38.162Z,0.90
2019-01-30T22:20:40.438Z,0.90
2019-01-30T22:26:43.424Z,0.90
2019-01-30T22:32:46.905Z,0.90
2019-01-30T22:38:50.231Z,0.90
2019-01-30T22:44:52.523Z,0.80
2019-01-30T22:50:54.970Z,0.80
2019-01-30T22:56:57.083Z,0.80
2019-01-30T23:03:03.331Z,0.80
2019-01-30T23:09:56.366Z,0.80
2019-01-30T23:16:32.011Z,0.80
2019-01-30T23:23:31.738Z,0.80
2019-01-30T23:30:33.817Z,0.80
2019-01-30T23:37:33.026Z,0.80
2019-01-30T23:44:16.842Z,0.80
2019-01-30T23:50:37.835Z,0.80
2019-01-30T23:57:12.647Z,0.80
